Ana Sayfa
METAR-TAF:

METAR-TAF

Havaalanları :

Stanly County Airport

Albemarle, Kuzey Carolina, Amerika Birleşik Devletleri

Enlem: 35-25-00N, Boylam: 080-09-03W, yükseklik: 186 m

Güncel hava durumu gözlemi

Rapor saat 18:35 UTC de 17 dakika önce yapıldı.
Rüzgar doğu/kuzeydoğudan 4 kt
Sıcaklık 10°C
Nem 25%
Basınç 1023 hPa
Görüş mesafesi: 16.1 km
4100 ft yükseklikte parçalı bulutlu

METAR: KVUJ 071835Z AUTO 06004KT 10SM SCT041 10/M09 A3020 RMK AO2 T01021094

Saat: 13:52 (18:52 UTC)


TAF: eksik

4.000'den fazla havaalanı için hava durumu gözlemleri ve tahminleri (METAR ve TAF raporları).

Kullanılabilir istasyonlar harita üzerinde sarı ve kırmızı noktalarla gösterilir.

İstasyonun adını görmek için fareyi noktanın üzerinde gezdirin.

Sonrasında hava gözlem ve tahminlerini görmek için tıklayın.

Haritayı değiştirmek için: yaklaştırmak için siyah artı işaretli yeşil düğmeye ve uzaklaştırmak için de eksi işaretli düğmeye hızla tıklayın; bitişik haritalar için yeşil okları kullanın.


METAR-TAF: